| time (UTC) | temp F | wind direction | speed knots | gust knots | rain 1hr in | rain 24hr in | rain mn in | humidity % | barometer mb |
| 20260507181515 | 54 | 5 | 0.0 | 3.5 | 0.00 | 0.02 | 0.02 | 61 | 1012.1 |
| 20260507180013 | 55 | 27 | 2.6 | 7.0 | 0.00 | 0.02 | 0.02 | 63 | 1011.9 |
| 20260507174513 | 55 | 20 | 5.2 | 7.0 | 0.00 | 0.02 | 0.02 | 62 | 1011.8 |
| 20260507173010 | 56 | 40 | 3.5 | 5.2 | 0.00 | 0.02 | 0.02 | 62 | 1011.8 |
| 20260507171506 | 56 | 30 | 3.5 | 5.2 | 0.00 | 0.02 | 0.02 | 61 | 1011.7 |
| 20260507170003 | 56 | 45 | 2.6 | 5.2 | 0.00 | 0.02 | 0.02 | 62 | 1011.6 |
| 20260507164606 | 56 | 40 | 2.6 | 7.0 | 0.00 | 0.02 | 0.02 | 62 | 1011.5 |
| 20260507163106 | 56 | 13 | 3.5 | 7.8 | 0.00 | 0.02 | 0.02 | 62 | 1011.5 |
| 20260507161555 | 56 | 50 | 0.9 | 3.5 | 0.00 | 0.02 | 0.02 | 62 | 1011.6 |
| 20260507160052 | 56 | 60 | 2.6 | 7.0 | 0.00 | 0.02 | 0.02 | 62 | 1011.7 |
| 20260507154547 | 56 | 27 | 2.6 | 5.2 | 0.00 | 0.02 | 0.02 | 62 | 1011.7 |
| 20260507153045 | 56 | 45 | 1.7 | 7.8 | 0.00 | 0.02 | 0.02 | 62 | 1011.7 |
| 20260507151540 | 57 | 32 | 2.6 | 7.8 | 0.00 | 0.02 | 0.02 | 62 | 1011.7 |
| 20260507150038 | 57 | 28 | 3.5 | 5.2 | 0.00 | 0.02 | 0.02 | 62 | 1011.8 |
| 20260507144534 | 57 | 40 | 3.5 | 9.6 | 0.00 | 0.02 | 0.02 | 61 | 1011.8 |
| 20260507143028 | 56 | 45 | 5.2 | 10.4 | 0.00 | 0.02 | 0.02 | 61 | 1011.8 |
| 20260507141525 | 55 | 45 | 5.2 | 8.7 | 0.00 | 0.02 | 0.02 | 57 | 1011.9 |
| 20260507140021 | 55 | 40 | 4.3 | 9.6 | 0.00 | 0.02 | 0.02 | 58 | 1011.9 |
| 20260507134517 | 57 | 33 | 6.1 | 9.6 | 0.00 | 0.02 | 0.02 | 55 | 1012.0 |
| 20260507133013 | 56 | 40 | 1.7 | 8.7 | 0.00 | 0.02 | 0.02 | 55 | 1012.1 |
| 20260507131516 | 57 | 68 | 6.1 | 12.2 | 0.00 | 0.02 | 0.02 | 52 | 1012.2 |
| 20260507130004 | 56 | 76 | 5.2 | 12.2 | 0.00 | 0.02 | 0.02 | 53 | 1012.2 |
| 20260507124603 | 56 | 14 | 4.3 | 9.6 | 0.00 | 0.13 | 0.02 | 47 | 1012.3 |
| 20260507123055 | 56 | 40 | 7.8 | 11.3 | 0.00 | 0.13 | 0.02 | 39 | 1012.2 |
| 20260507121552 | 55 | 45 | 6.1 | 11.3 | 0.00 | 0.13 | 0.02 | 39 | 1012.2 |
| 20260507120048 | 56 | 28 | 8.7 | 11.3 | 0.00 | 0.13 | 0.02 | 58 | 1012.2 |
| 20260507114546 | 56 | 228 | 0.9 | 6.1 | 0.00 | 0.25 | 0.02 | 60 | 1012.2 |
| 20260507113039 | 56 | 220 | 0.9 | 7.8 | 0.00 | 0.25 | 0.02 | 62 | 1012.4 |
| 20260507111537 | 55 | 225 | 0.9 | 7.8 | 0.00 | 0.25 | 0.02 | 58 | 1012.5 |
| 20260507110032 | 55 | 240 | 0.9 | 6.1 | 0.00 | 0.25 | 0.02 | 53 | 1012.5 |
| 20260507104528 | 55 | 208 | 1.7 | 8.7 | 0.00 | 0.27 | 0.02 | 40 | 1012.7 |
| 20260507103029 | 54 | 10 | 3.5 | 7.8 | 0.00 | 0.27 | 0.02 | 19 | 1012.9 |
| 20260507101520 | 53 | 329 | 0.0 | 1.7 | 0.00 | 0.27 | 0.02 | 14 | 1012.9 |
| 20260507100019 | 52 | 326 | 0.9 | 6.1 | 0.00 | 0.27 | 0.02 | 16 | 1013.1 |
| 20260507094512 | 52 | 243 | 0.9 | 3.5 | 0.00 | 0.27 | 0.02 | 3 | 1013.0 |
| 20260507093006 | 51 | 240 | 1.7 | 5.2 | 0.01 | 0.27 | 0.02 | 1 | 1013.1 |
| 20260507091606 | 51 | 40 | 2.6 | 7.8 | 0.01 | 0.27 | 0.02 | 1 | 1013.0 |
| 20260507090058 | 50 | 96 | 0.9 | 5.2 | 0.01 | 0.27 | 0.02 | 1 | 1012.8 |
| 20260507084554 | 48 | 287 | 0.9 | 6.1 | 0.02 | 0.27 | 0.02 | 1 | 1012.7 |
| 20260507083050 | 48 | 164 | 0.0 | 5.2 | 0.01 | 0.26 | 0.01 | 1 | 1012.7 |
| 20260507081547 | 48 | 230 | 0.0 | 4.3 | 0.01 | 0.26 | 0.01 | 1 | 1012.7 |
| 20260507080042 | 48 | 243 | 0.9 | 5.2 | 0.01 | 0.26 | 0.01 | 1 | 1012.6 |
| 20260507074539 | 47 | 287 | 0.9 | 7.0 | 0.00 | 0.25 | 0.00 | 1 | 1012.5 |
| 20260507073034 | 48 | 229 | 0.9 | 5.2 | 0.00 | 0.25 | 0.00 | 1 | 1012.5 |
| 20260507071558 | 48 | 329 | 0.0 | 3.5 | 0.00 | 0.25 | 0.00 | 1 | 1012.3 |
| 20260507070032 | 47 | 231 | 0.9 | 6.1 | 0.00 | 0.25 | 0.00 | 1 | 1012.3 |
| 20260507064523 | 47 | 172 | 0.9 | 2.6 | 0.00 | 0.25 | 0.00 | 1 | 1012.1 |
| 20260507063019 | 47 | 68 | 0.0 | 2.6 | 0.00 | 0.25 | 0.00 | 1 | 1012.1 |
| 20260507061517 | 46 | 216 | 0.0 | 0.9 | 0.00 | 0.25 | 0.00 | 1 | 1012.0 |
| 20260507060010 | 46 | 192 | 0.0 | 4.3 | 0.00 | 0.25 | 0.00 | 1 | 1011.9 |
| 20260507054506 | 46 | 249 | 0.0 | 5.2 | 0.00 | 0.25 | 0.00 | 1 | 1011.8 |
| 20260507053003 | 46 | 347 | 0.9 | 3.5 | 0.00 | 0.25 | 0.00 | 1 | 1011.6 |
| 20260507051607 | 46 | 215 | 0.0 | 1.7 | 0.00 | 0.25 | 0.00 | 1 | 1011.4 |
| 20260507050057 | 46 | 264 | 0.0 | 6.1 | 0.00 | 0.25 | 0.00 | 1 | 1011.3 |
| 20260507044556 | 45 | 156 | 0.0 | 6.1 | 0.00 | 0.25 | 0.00 | 1 | 1011.1 |
| 20260507043051 | 45 | 260 | 0.0 | 5.2 | 0.00 | 0.25 | 0.00 | 1 | 1010.9 |
| 20260507041546 | 45 | 218 | 0.0 | 4.3 | 0.00 | 0.25 | 0.00 | 1 | 1010.9 |
| 20260507040040 | 45 | 203 | 0.0 | 2.6 | 0.00 | 0.25 | 0.00 | 1 | 1010.9 |
| 20260507034538 | 45 | 80 | 0.0 | 1.7 | 0.00 | 0.25 | 0.00 | 1 | 1010.7 |
| 20260507033039 | 45 | 241 | 0.0 | 3.5 | 0.00 | 0.25 | 0.00 | 1 | 1010.7 |
| 20260507031530 | 45 | 286 | 0.0 | 1.7 | 0.00 | 0.25 | 0.00 | 1 | 1010.5 |
| 20260507030030 | 45 | 189 | 0.0 | 2.6 | 0.00 | 0.25 | 0.00 | 1 | 1010.4 |
| 20260507024530 | 45 | 220 | 0.0 | 3.5 | 0.00 | 0.25 | 0.00 | 1 | 1010.4 |
| 20260507023027 | 45 | 278 | 0.9 | 2.6 | 0.00 | 0.25 | 0.00 | 1 | 1010.5 |
| 20260507021521 | 45 | 302 | 0.0 | 5.2 | 0.00 | 0.25 | 0.00 | 1 | 1010.4 |
| 20260507020021 | 45 | 249 | 3.5 | 8.7 | 0.00 | 0.25 | 0.00 | 1 | 1010.3 |
| 20260507014514 | 45 | 208 | 2.6 | 7.8 | 0.00 | 0.25 | 0.00 | 1 | 1010.0 |
| 20260507013009 | 45 | 208 | 0.9 | 7.0 | 0.00 | 0.25 | 0.00 | 1 | 1009.9 |
| 20260507011506 | 45 | 200 | 2.6 | 5.2 | 0.00 | 0.25 | 0.00 | 1 | 1009.9 |
| 20260507010003 | 45 | 349 | 0.9 | 6.1 | 0.00 | 0.25 | 0.00 | 1 | 1009.7 |
| 20260507004613 | 45 | 268 | 1.7 | 8.7 | 0.00 | 0.25 | 0.00 | 1 | 1009.7 |
| 20260507003055 | 45 | 273 | 2.6 | 7.0 | 0.00 | 0.25 | 0.00 | 1 | 1009.7 |
| 20260507001555 | 45 | 197 | 0.9 | 7.0 | 0.00 | 0.25 | 0.00 | 1 | 1009.7 |
| 20260507000048 | 45 | 12 | 0.9 | 5.2 | 0.00 | 0.25 | 0.00 | 1 | 1009.6 |
| 20260506234544 | 44 | 212 | 0.0 | 7.0 | 0.00 | 0.25 | 0.00 | 1 | 1009.6 |
| 20260506233040 | 44 | 223 | 0.9 | 5.2 | 0.00 | 0.25 | 0.00 | 1 | 1009.6 |
| 20260506231535 | 44 | 243 | 1.7 | 4.3 | 0.00 | 0.25 | 0.00 | 1 | 1009.4 |
| 20260506230031 | 45 | 250 | 0.0 | 0.9 | 0.00 | 0.25 | 0.00 | 1 | 1009.4 |
| 20260506224527 | 45 | 243 | 0.0 | 1.7 | 0.00 | 0.25 | 0.00 | 1 | 1009.4 |
| 20260506223023 | 45 | 231 | 0.9 | 2.6 | 0.00 | 0.25 | 0.00 | 1 | 1009.4 |
| 20260506221519 | 45 | 318 | 0.0 | 3.5 | 0.00 | 0.25 | 0.00 | 1 | 1009.3 |
| 20260506220029 | 45 | 242 | 0.0 | 1.7 | 0.00 | 0.25 | 0.00 | 1 | 1009.3 |
| 20260506214510 | 45 | 208 | 0.9 | 3.5 | 0.00 | 0.25 | 0.25 | 1 | 1009.3 |
| 20260506213007 | 45 | 195 | 0.0 | 6.1 | 0.00 | 0.25 | 0.25 | 1 | 1009.3 |
| 20260506211508 | 45 | 229 | 1.7 | 4.3 | 0.00 | 0.25 | 0.25 | 1 | 1009.4 |
| 20260506204600 | 44 | 248 | 0.0 | 0.0 | 0.00 | 0.25 | 0.25 | 1 | 1009.2 |
| 20260506203053 | 44 | 262 | 0.0 | 0.0 | 0.00 | 0.25 | 0.25 | 1 | 1009.2 |
| 20260506201549 | 44 | 231 | 0.0 | 1.7 | 0.00 | 0.25 | 0.25 | 1 | 1009.1 |
| 20260506200049 | 45 | 207 | 1.7 | 4.3 | 0.00 | 0.25 | 0.25 | 1 | 1009.1 |
| 20260506194543 | 45 | 216 | 1.7 | 5.2 | 0.00 | 0.25 | 0.25 | 1 | 1008.7 |
| 20260506193038 | 46 | 243 | 0.9 | 7.0 | 0.00 | 0.25 | 0.25 | 1 | 1008.4 |
| 20260506191534 | 46 | 247 | 0.9 | 3.5 | 0.00 | 0.25 | 0.25 | 1 | 1008.2 |
| 20260506190030 | 46 | 268 | 0.9 | 6.1 | 0.00 | 0.25 | 0.25 | 1 | 1008.0 |
| 20260506184525 | 46 | 220 | 0.9 | 7.0 | 0.00 | 0.25 | 0.25 | 1 | 1008.0 |
| 20260506183022 | 46 | 276 | 0.9 | 3.5 | 0.00 | 0.25 | 0.25 | 1 | 1007.8 |